sensor_id;sensor_type;location;lat;lon;timestamp;P1;durP1;ratioP1;P2;durP2;ratioP2
19167;SDS011;9716;53.114;18.040;2023-11-21T00:00:08;15.63;;;6.90;;
19167;SDS011;9716;53.114;18.040;2023-11-21T00:02:59;12.07;;;5.33;;
19167;SDS011;9716;53.114;18.040;2023-11-21T00:05:29;20.77;;;7.87;;
19167;SDS011;9716;53.114;18.040;2023-11-21T00:07:59;11.33;;;6.23;;
19167;SDS011;9716;53.114;18.040;2023-11-21T00:10:27;10.33;;;5.27;;
19167;SDS011;9716;53.114;18.040;2023-11-21T00:12:56;13.13;;;5.83;;
19167;SDS011;9716;53.114;18.040;2023-11-21T00:15:24;11.00;;;5.47;;
19167;SDS011;9716;53.114;18.040;2023-11-21T00:17:53;11.00;;;6.20;;
19167;SDS011;9716;53.114;18.040;2023-11-21T00:20:22;11.43;;;5.67;;
19167;SDS011;9716;53.114;18.040;2023-11-21T00:22:50;12.23;;;5.80;;
19167;SDS011;9716;53.114;18.040;2023-11-21T00:25:20;13.43;;;5.90;;
19167;SDS011;9716;53.114;18.040;2023-11-21T00:27:48;10.03;;;5.43;;
19167;SDS011;9716;53.114;18.040;2023-11-21T00:30:17;12.53;;;6.47;;
19167;SDS011;9716;53.114;18.040;2023-11-21T00:32:46;13.20;;;6.50;;
19167;SDS011;9716;53.114;18.040;2023-11-21T00:35:15;15.47;;;6.33;;
19167;SDS011;9716;53.114;18.040;2023-11-21T00:37:43;13.53;;;6.57;;
19167;SDS011;9716;53.114;18.040;2023-11-21T00:40:12;12.50;;;5.67;;
19167;SDS011;9716;53.114;18.040;2023-11-21T00:42:43;14.03;;;6.10;;
19167;SDS011;9716;53.114;18.040;2023-11-21T00:45:12;14.93;;;6.27;;
19167;SDS011;9716;53.114;18.040;2023-11-21T00:47:41;18.03;;;6.43;;
19167;SDS011;9716;53.114;18.040;2023-11-21T00:50:10;11.93;;;6.13;;
19167;SDS011;9716;53.114;18.040;2023-11-21T00:52:38;14.60;;;5.80;;
19167;SDS011;9716;53.114;18.040;2023-11-21T00:55:07;13.13;;;6.70;;
19167;SDS011;9716;53.114;18.040;2023-11-21T00:57:37;9.40;;;5.20;;
19167;SDS011;9716;53.114;18.040;2023-11-21T01:00:07;11.10;;;5.60;;
19167;SDS011;9716;53.114;18.040;2023-11-21T01:02:40;9.43;;;5.10;;
19167;SDS011;9716;53.114;18.040;2023-11-21T01:05:10;11.63;;;5.73;;
19167;SDS011;9716;53.114;18.040;2023-11-21T01:07:38;8.60;;;4.63;;
19167;SDS011;9716;53.114;18.040;2023-11-21T01:10:07;9.03;;;5.27;;
19167;SDS011;9716;53.114;18.040;2023-11-21T01:12:36;9.83;;;5.63;;
19167;SDS011;9716;53.114;18.040;2023-11-21T01:15:07;8.30;;;4.70;;
19167;SDS011;9716;53.114;18.040;2023-11-21T01:17:38;9.37;;;4.70;;
19167;SDS011;9716;53.114;18.040;2023-11-21T01:20:08;10.40;;;5.53;;
19167;SDS011;9716;53.114;18.040;2023-11-21T01:22:38;11.77;;;5.50;;
19167;SDS011;9716;53.114;18.040;2023-11-21T01:25:07;13.00;;;6.23;;
19167;SDS011;9716;53.114;18.040;2023-11-21T01:27:37;11.73;;;5.53;;
19167;SDS011;9716;53.114;18.040;2023-11-21T01:30:07;10.60;;;5.63;;
19167;SDS011;9716;53.114;18.040;2023-11-21T01:32:37;12.83;;;6.33;;
19167;SDS011;9716;53.114;18.040;2023-11-21T01:35:06;15.43;;;6.73;;
19167;SDS011;9716;53.114;18.040;2023-11-21T01:37:36;11.97;;;5.77;;
19167;SDS011;9716;53.114;18.040;2023-11-21T01:40:06;11.53;;;5.87;;
19167;SDS011;9716;53.114;18.040;2023-11-21T01:42:40;11.37;;;5.87;;
19167;SDS011;9716;53.114;18.040;2023-11-21T01:45:12;9.33;;;5.83;;
19167;SDS011;9716;53.114;18.040;2023-11-21T01:47:41;15.03;;;6.63;;
19167;SDS011;9716;53.114;18.040;2023-11-21T01:50:13;13.90;;;5.30;;
19167;SDS011;9716;53.114;18.040;2023-11-21T01:52:43;12.07;;;5.20;;
19167;SDS011;9716;53.114;18.040;2023-11-21T01:55:14;8.13;;;5.17;;
19167;SDS011;9716;53.114;18.040;2023-11-21T01:57:54;12.23;;;5.07;;
19167;SDS011;9716;53.114;18.040;2023-11-21T02:00:24;9.57;;;5.30;;
19167;SDS011;9716;53.114;18.040;2023-11-21T02:02:55;10.77;;;5.13;;
19167;SDS011;9716;53.114;18.040;2023-11-21T02:05:25;11.20;;;5.63;;
19167;SDS011;9716;53.114;18.040;2023-11-21T02:07:53;9.87;;;4.70;;
19167;SDS011;9716;53.114;18.040;2023-11-21T02:10:23;16.27;;;5.70;;
19167;SDS011;9716;53.114;18.040;2023-11-21T02:12:52;9.97;;;4.70;;
19167;SDS011;9716;53.114;18.040;2023-11-21T02:15:20;9.50;;;4.73;;
19167;SDS011;9716;53.114;18.040;2023-11-21T02:17:54;11.17;;;5.70;;
19167;SDS011;9716;53.114;18.040;2023-11-21T02:20:26;10.13;;;4.93;;
19167;SDS011;9716;53.114;18.040;2023-11-21T02:22:57;10.87;;;5.77;;
19167;SDS011;9716;53.114;18.040;2023-11-21T02:25:28;10.50;;;5.37;;
19167;SDS011;9716;53.114;18.040;2023-11-21T02:27:58;9.43;;;5.20;;
19167;SDS011;9716;53.114;18.040;2023-11-21T02:30:28;8.60;;;4.97;;
19167;SDS011;9716;53.114;18.040;2023-11-21T02:32:58;10.70;;;5.23;;
19167;SDS011;9716;53.114;18.040;2023-11-21T02:35:27;10.83;;;5.47;;
19167;SDS011;9716;53.114;18.040;2023-11-21T02:37:59;9.10;;;5.00;;
19167;SDS011;9716;53.114;18.040;2023-11-21T02:40:28;10.17;;;5.47;;
19167;SDS011;9716;53.114;18.040;2023-11-21T02:42:57;13.27;;;6.10;;
19167;SDS011;9716;53.114;18.040;2023-11-21T02:45:26;9.50;;;5.73;;
19167;SDS011;9716;53.114;18.040;2023-11-21T02:47:55;16.87;;;7.67;;
19167;SDS011;9716;53.114;18.040;2023-11-21T02:50:25;12.13;;;5.80;;
19167;SDS011;9716;53.114;18.040;2023-11-21T02:52:54;11.90;;;5.90;;
19167;SDS011;9716;53.114;18.040;2023-11-21T02:55:26;15.60;;;7.00;;
19167;SDS011;9716;53.114;18.040;2023-11-21T02:57:55;10.00;;;5.00;;
19167;SDS011;9716;53.114;18.040;2023-11-21T03:00:24;14.37;;;6.70;;
19167;SDS011;9716;53.114;18.040;2023-11-21T03:02:53;12.63;;;5.67;;
19167;SDS011;9716;53.114;18.040;2023-11-21T03:05:23;11.93;;;5.50;;
19167;SDS011;9716;53.114;18.040;2023-11-21T03:07:52;12.67;;;5.83;;
19167;SDS011;9716;53.114;18.040;2023-11-21T03:10:20;10.33;;;5.97;;
19167;SDS011;9716;53.114;18.040;2023-11-21T03:12:51;13.20;;;5.80;;
19167;SDS011;9716;53.114;18.040;2023-11-21T03:15:20;12.43;;;5.77;;
19167;SDS011;9716;53.114;18.040;2023-11-21T03:17:48;11.50;;;5.80;;
19167;SDS011;9716;53.114;18.040;2023-11-21T03:20:17;10.23;;;6.27;;
19167;SDS011;9716;53.114;18.040;2023-11-21T03:22:45;11.67;;;6.13;;
19167;SDS011;9716;53.114;18.040;2023-11-21T03:25:14;9.60;;;5.57;;
19167;SDS011;9716;53.114;18.040;2023-11-21T03:27:44;12.67;;;6.73;;
19167;SDS011;9716;53.114;18.040;2023-11-21T03:30:14;14.87;;;7.53;;
19167;SDS011;9716;53.114;18.040;2023-11-21T03:32:43;17.27;;;8.13;;
19167;SDS011;9716;53.114;18.040;2023-11-21T03:35:12;15.13;;;7.23;;
19167;SDS011;9716;53.114;18.040;2023-11-21T03:37:40;17.87;;;7.93;;
19167;SDS011;9716;53.114;18.040;2023-11-21T03:40:10;15.53;;;7.63;;
19167;SDS011;9716;53.114;18.040;2023-11-21T03:42:39;21.20;;;8.03;;
19167;SDS011;9716;53.114;18.040;2023-11-21T03:45:08;13.60;;;6.47;;
19167;SDS011;9716;53.114;18.040;2023-11-21T03:47:40;17.83;;;7.80;;
19167;SDS011;9716;53.114;18.040;2023-11-21T03:50:09;20.33;;;8.60;;
19167;SDS011;9716;53.114;18.040;2023-11-21T03:52:38;15.13;;;6.17;;
19167;SDS011;9716;53.114;18.040;2023-11-21T03:55:07;16.37;;;7.97;;
19167;SDS011;9716;53.114;18.040;2023-11-21T03:57:37;23.23;;;8.83;;
19167;SDS011;9716;53.114;18.040;2023-11-21T04:00:06;25.53;;;8.47;;
19167;SDS011;9716;53.114;18.040;2023-11-21T04:02:36;21.47;;;9.23;;
19167;SDS011;9716;53.114;18.040;2023-11-21T04:05:08;33.20;;;11.73;;
19167;SDS011;9716;53.114;18.040;2023-11-21T04:07:36;26.13;;;10.50;;
19167;SDS011;9716;53.114;18.040;2023-11-21T04:10:08;21.20;;;9.03;;
19167;SDS011;9716;53.114;18.040;2023-11-21T04:12:40;26.83;;;10.70;;
19167;SDS011;9716;53.114;18.040;2023-11-21T04:15:09;27.93;;;10.90;;
19167;SDS011;9716;53.114;18.040;2023-11-21T04:17:39;28.07;;;11.83;;
19167;SDS011;9716;53.114;18.040;2023-11-21T04:20:09;19.87;;;8.27;;
19167;SDS011;9716;53.114;18.040;2023-11-21T04:22:38;21.70;;;9.47;;
19167;SDS011;9716;53.114;18.040;2023-11-21T04:25:12;20.60;;;8.87;;
19167;SDS011;9716;53.114;18.040;2023-11-21T04:27:42;15.77;;;7.67;;
19167;SDS011;9716;53.114;18.040;2023-11-21T04:30:12;27.07;;;8.20;;
19167;SDS011;9716;53.114;18.040;2023-11-21T04:32:41;16.63;;;6.60;;
19167;SDS011;9716;53.114;18.040;2023-11-21T04:35:12;14.30;;;7.07;;
19167;SDS011;9716;53.114;18.040;2023-11-21T04:37:41;14.43;;;8.33;;
19167;SDS011;9716;53.114;18.040;2023-11-21T04:40:10;14.03;;;7.17;;
19167;SDS011;9716;53.114;18.040;2023-11-21T04:42:39;13.40;;;7.10;;
19167;SDS011;9716;53.114;18.040;2023-11-21T04:45:08;17.87;;;7.13;;
19167;SDS011;9716;53.114;18.040;2023-11-21T04:47:39;13.73;;;6.90;;
19167;SDS011;9716;53.114;18.040;2023-11-21T04:50:08;13.90;;;6.90;;
19167;SDS011;9716;53.114;18.040;2023-11-21T04:52:38;14.70;;;6.33;;
19167;SDS011;9716;53.114;18.040;2023-11-21T04:55:07;14.03;;;7.07;;
19167;SDS011;9716;53.114;18.040;2023-11-21T04:57:37;12.90;;;6.37;;
19167;SDS011;9716;53.114;18.040;2023-11-21T05:00:09;14.07;;;5.73;;
19167;SDS011;9716;53.114;18.040;2023-11-21T05:02:38;14.03;;;5.80;;
19167;SDS011;9716;53.114;18.040;2023-11-21T05:05:09;12.83;;;6.53;;
19167;SDS011;9716;53.114;18.040;2023-11-21T05:07:39;13.43;;;7.00;;
19167;SDS011;9716;53.114;18.040;2023-11-21T05:10:09;14.67;;;7.10;;
19167;SDS011;9716;53.114;18.040;2023-11-21T05:12:41;11.97;;;5.53;;
19167;SDS011;9716;53.114;18.040;2023-11-21T05:15:11;12.53;;;5.97;;
19167;SDS011;9716;53.114;18.040;2023-11-21T05:17:42;13.07;;;5.83;;
19167;SDS011;9716;53.114;18.040;2023-11-21T05:20:13;13.57;;;6.13;;
19167;SDS011;9716;53.114;18.040;2023-11-21T05:22:46;16.20;;;7.40;;
19167;SDS011;9716;53.114;18.040;2023-11-21T05:25:15;13.07;;;6.53;;
19167;SDS011;9716;53.114;18.040;2023-11-21T05:27:45;16.03;;;6.87;;
19167;SDS011;9716;53.114;18.040;2023-11-21T05:30:14;17.83;;;7.40;;
19167;SDS011;9716;53.114;18.040;2023-11-21T05:32:42;19.73;;;8.03;;
19167;SDS011;9716;53.114;18.040;2023-11-21T05:35:11;18.73;;;8.00;;
19167;SDS011;9716;53.114;18.040;2023-11-21T05:37:42;16.37;;;7.00;;
19167;SDS011;9716;53.114;18.040;2023-11-21T05:40:12;16.43;;;6.63;;
19167;SDS011;9716;53.114;18.040;2023-11-21T05:42:41;15.07;;;7.03;;
19167;SDS011;9716;53.114;18.040;2023-11-21T05:45:09;21.07;;;7.73;;
19167;SDS011;9716;53.114;18.040;2023-11-21T05:47:39;16.77;;;6.87;;
19167;SDS011;9716;53.114;18.040;2023-11-21T05:50:10;13.77;;;6.47;;
19167;SDS011;9716;53.114;18.040;2023-11-21T05:52:41;15.80;;;7.53;;
19167;SDS011;9716;53.114;18.040;2023-11-21T05:55:12;22.27;;;8.23;;
19167;SDS011;9716;53.114;18.040;2023-11-21T05:57:41;15.17;;;7.57;;
19167;SDS011;9716;53.114;18.040;2023-11-21T06:00:11;17.07;;;7.10;;
19167;SDS011;9716;53.114;18.040;2023-11-21T06:02:42;15.40;;;6.10;;
19167;SDS011;9716;53.114;18.040;2023-11-21T06:05:12;14.20;;;6.67;;
19167;SDS011;9716;53.114;18.040;2023-11-21T06:07:40;19.13;;;8.07;;
19167;SDS011;9716;53.114;18.040;2023-11-21T06:10:10;22.03;;;8.40;;
19167;SDS011;9716;53.114;18.040;2023-11-21T06:12:41;16.27;;;7.77;;
19167;SDS011;9716;53.114;18.040;2023-11-21T06:15:10;18.70;;;7.60;;
19167;SDS011;9716;53.114;18.040;2023-11-21T06:17:41;14.43;;;6.57;;
19167;SDS011;9716;53.114;18.040;2023-11-21T06:20:11;15.70;;;7.53;;
19167;SDS011;9716;53.114;18.040;2023-11-21T06:22:42;17.80;;;7.10;;
19167;SDS011;9716;53.114;18.040;2023-11-21T06:25:12;18.50;;;8.10;;
19167;SDS011;9716;53.114;18.040;2023-11-21T06:27:42;14.97;;;6.60;;
19167;SDS011;9716;53.114;18.040;2023-11-21T06:30:12;18.43;;;7.70;;
19167;SDS011;9716;53.114;18.040;2023-11-21T06:32:42;15.20;;;6.40;;
19167;SDS011;9716;53.114;18.040;2023-11-21T06:35:13;15.57;;;6.73;;
19167;SDS011;9716;53.114;18.040;2023-11-21T06:37:43;14.13;;;7.03;;
19167;SDS011;9716;53.114;18.040;2023-11-21T06:40:17;12.67;;;6.50;;
19167;SDS011;9716;53.114;18.040;2023-11-21T06:42:47;16.70;;;6.00;;
19167;SDS011;9716;53.114;18.040;2023-11-21T06:45:17;23.03;;;8.47;;
19167;SDS011;9716;53.114;18.040;2023-11-21T06:47:46;11.73;;;5.80;;
19167;SDS011;9716;53.114;18.040;2023-11-21T06:50:16;12.47;;;6.03;;
19167;SDS011;9716;53.114;18.040;2023-11-21T06:52:44;13.77;;;6.93;;
19167;SDS011;9716;53.114;18.040;2023-11-21T06:55:13;13.83;;;6.40;;
19167;SDS011;9716;53.114;18.040;2023-11-21T06:57:44;14.77;;;6.90;;
19167;SDS011;9716;53.114;18.040;2023-11-21T07:00:15;15.07;;;6.97;;
19167;SDS011;9716;53.114;18.040;2023-11-21T07:02:45;10.90;;;5.40;;
19167;SDS011;9716;53.114;18.040;2023-11-21T07:05:14;15.87;;;6.50;;
19167;SDS011;9716;53.114;18.040;2023-11-21T07:07:47;13.83;;;5.63;;
19167;SDS011;9716;53.114;18.040;2023-11-21T07:10:17;14.47;;;7.07;;
19167;SDS011;9716;53.114;18.040;2023-11-21T07:12:47;12.00;;;6.20;;
19167;SDS011;9716;53.114;18.040;2023-11-21T07:15:16;15.67;;;6.40;;
19167;SDS011;9716;53.114;18.040;2023-11-21T07:17:46;13.83;;;5.73;;
19167;SDS011;9716;53.114;18.040;2023-11-21T07:20:16;13.67;;;5.83;;
19167;SDS011;9716;53.114;18.040;2023-11-21T07:22:44;17.23;;;5.93;;
19167;SDS011;9716;53.114;18.040;2023-11-21T07:25:14;14.90;;;6.67;;
19167;SDS011;9716;53.114;18.040;2023-11-21T07:27:42;12.37;;;5.27;;
19167;SDS011;9716;53.114;18.040;2023-11-21T07:30:13;17.93;;;6.80;;
19167;SDS011;9716;53.114;18.040;2023-11-21T07:32:42;13.73;;;6.07;;
19167;SDS011;9716;53.114;18.040;2023-11-21T07:35:13;12.80;;;6.13;;
19167;SDS011;9716;53.114;18.040;2023-11-21T07:37:42;14.97;;;6.60;;
19167;SDS011;9716;53.114;18.040;2023-11-21T07:40:11;12.67;;;4.90;;
19167;SDS011;9716;53.114;18.040;2023-11-21T07:42:41;16.97;;;6.17;;
19167;SDS011;9716;53.114;18.040;2023-11-21T07:45:10;16.80;;;6.07;;
19167;SDS011;9716;53.114;18.040;2023-11-21T07:47:40;9.23;;;5.30;;
19167;SDS011;9716;53.114;18.040;2023-11-21T07:50:09;13.60;;;5.50;;
19167;SDS011;9716;53.114;18.040;2023-11-21T07:52:40;14.90;;;5.80;;
19167;SDS011;9716;53.114;18.040;2023-11-21T07:55:09;22.23;;;6.47;;
19167;SDS011;9716;53.114;18.040;2023-11-21T07:57:38;18.10;;;5.73;;
19167;SDS011;9716;53.114;18.040;2023-11-21T08:00:10;14.80;;;6.10;;
19167;SDS011;9716;53.114;18.040;2023-11-21T08:02:41;15.90;;;5.53;;
19167;SDS011;9716;53.114;18.040;2023-11-21T08:05:12;11.20;;;5.20;;
19167;SDS011;9716;53.114;18.040;2023-11-21T08:07:53;18.53;;;6.03;;
19167;SDS011;9716;53.114;18.040;2023-11-21T08:10:23;21.57;;;6.83;;
19167;SDS011;9716;53.114;18.040;2023-11-21T08:12:51;14.87;;;5.93;;
19167;SDS011;9716;53.114;18.040;2023-11-21T08:15:20;15.77;;;5.40;;
19167;SDS011;9716;53.114;18.040;2023-11-21T08:17:50;14.63;;;5.80;;
19167;SDS011;9716;53.114;18.040;2023-11-21T08:20:19;14.97;;;5.83;;
19167;SDS011;9716;53.114;18.040;2023-11-21T08:22:49;12.70;;;5.53;;
19167;SDS011;9716;53.114;18.040;2023-11-21T08:25:19;11.27;;;5.33;;
19167;SDS011;9716;53.114;18.040;2023-11-21T08:27:47;11.30;;;4.17;;
19167;SDS011;9716;53.114;18.040;2023-11-21T08:30:16;9.63;;;4.00;;
19167;SDS011;9716;53.114;18.040;2023-11-21T08:32:46;6.70;;;3.97;;
19167;SDS011;9716;53.114;18.040;2023-11-21T08:35:16;15.10;;;4.70;;
19167;SDS011;9716;53.114;18.040;2023-11-21T08:37:45;8.80;;;4.40;;
19167;SDS011;9716;53.114;18.040;2023-11-21T08:40:14;8.70;;;4.40;;
19167;SDS011;9716;53.114;18.040;2023-11-21T08:42:44;10.97;;;4.90;;
19167;SDS011;9716;53.114;18.040;2023-11-21T08:45:14;9.37;;;4.40;;
19167;SDS011;9716;53.114;18.040;2023-11-21T08:47:44;8.60;;;4.10;;
19167;SDS011;9716;53.114;18.040;2023-11-21T08:50:13;9.10;;;4.40;;
19167;SDS011;9716;53.114;18.040;2023-11-21T08:52:43;11.60;;;4.97;;
19167;SDS011;9716;53.114;18.040;2023-11-21T08:55:14;11.37;;;4.30;;
19167;SDS011;9716;53.114;18.040;2023-11-21T08:57:44;7.70;;;3.63;;
19167;SDS011;9716;53.114;18.040;2023-11-21T09:00:13;12.73;;;4.63;;
19167;SDS011;9716;53.114;18.040;2023-11-21T09:02:44;13.00;;;4.90;;
19167;SDS011;9716;53.114;18.040;2023-11-21T09:05:13;10.73;;;4.53;;
19167;SDS011;9716;53.114;18.040;2023-11-21T09:07:44;9.73;;;4.47;;
19167;SDS011;9716;53.114;18.040;2023-11-21T09:10:16;10.37;;;4.17;;
19167;SDS011;9716;53.114;18.040;2023-11-21T09:12:44;11.70;;;4.37;;
19167;SDS011;9716;53.114;18.040;2023-11-21T09:15:13;9.00;;;4.43;;
19167;SDS011;9716;53.114;18.040;2023-11-21T09:17:41;9.37;;;4.47;;
19167;SDS011;9716;53.114;18.040;2023-11-21T09:20:12;8.70;;;4.07;;
19167;SDS011;9716;53.114;18.040;2023-11-21T09:22:41;7.60;;;3.83;;
19167;SDS011;9716;53.114;18.040;2023-11-21T09:25:13;11.73;;;4.83;;
19167;SDS011;9716;53.114;18.040;2023-11-21T09:27:42;7.97;;;3.80;;
19167;SDS011;9716;53.114;18.040;2023-11-21T09:30:12;8.97;;;4.03;;
19167;SDS011;9716;53.114;18.040;2023-11-21T09:32:42;10.07;;;4.63;;
19167;SDS011;9716;53.114;18.040;2023-11-21T09:35:12;10.37;;;5.33;;
19167;SDS011;9716;53.114;18.040;2023-11-21T09:37:44;7.37;;;4.33;;
19167;SDS011;9716;53.114;18.040;2023-11-21T09:40:16;10.87;;;4.47;;
19167;SDS011;9716;53.114;18.040;2023-11-21T09:42:52;6.67;;;4.13;;
19167;SDS011;9716;53.114;18.040;2023-11-21T09:45:27;7.33;;;4.30;;
19167;SDS011;9716;53.114;18.040;2023-11-21T09:47:58;10.27;;;4.60;;
19167;SDS011;9716;53.114;18.040;2023-11-21T09:50:27;11.47;;;4.07;;
19167;SDS011;9716;53.114;18.040;2023-11-21T09:53:03;8.87;;;4.37;;
19167;SDS011;9716;53.114;18.040;2023-11-21T09:55:41;13.20;;;4.40;;
19167;SDS011;9716;53.114;18.040;2023-11-21T09:58:11;8.10;;;4.03;;
19167;SDS011;9716;53.114;18.040;2023-11-21T10:00:40;9.30;;;4.50;;
19167;SDS011;9716;53.114;18.040;2023-11-21T10:03:09;10.40;;;4.73;;
19167;SDS011;9716;53.114;18.040;2023-11-21T10:05:39;13.97;;;4.67;;
19167;SDS011;9716;53.114;18.040;2023-11-21T10:08:11;12.27;;;5.47;;
19167;SDS011;9716;53.114;18.040;2023-11-21T10:10:42;10.67;;;5.47;;
19167;SDS011;9716;53.114;18.040;2023-11-21T10:13:13;10.43;;;4.57;;
19167;SDS011;9716;53.114;18.040;2023-11-21T10:15:45;10.70;;;4.23;;
19167;SDS011;9716;53.114;18.040;2023-11-21T10:18:18;11.70;;;4.50;;
19167;SDS011;9716;53.114;18.040;2023-11-21T10:20:49;17.10;;;5.40;;
19167;SDS011;9716;53.114;18.040;2023-11-21T10:23:21;10.63;;;5.03;;
19167;SDS011;9716;53.114;18.040;2023-11-21T10:25:51;18.87;;;5.57;;
19167;SDS011;9716;53.114;18.040;2023-11-21T10:28:21;12.47;;;4.73;;
19167;SDS011;9716;53.114;18.040;2023-11-21T10:30:50;9.47;;;3.93;;
19167;SDS011;9716;53.114;18.040;2023-11-21T10:33:21;9.67;;;4.60;;
19167;SDS011;9716;53.114;18.040;2023-11-21T10:35:55;10.87;;;5.77;;
19167;SDS011;9716;53.114;18.040;2023-11-21T10:38:25;11.70;;;5.67;;
19167;SDS011;9716;53.114;18.040;2023-11-21T10:40:54;23.00;;;5.53;;
19167;SDS011;9716;53.114;18.040;2023-11-21T10:43:24;9.53;;;4.70;;
19167;SDS011;9716;53.114;18.040;2023-11-21T10:45:57;8.97;;;5.07;;
19167;SDS011;9716;53.114;18.040;2023-11-21T10:48:27;12.43;;;5.13;;
19167;SDS011;9716;53.114;18.040;2023-11-21T10:50:56;11.23;;;4.77;;
19167;SDS011;9716;53.114;18.040;2023-11-21T10:53:29;12.97;;;5.43;;
19167;SDS011;9716;53.114;18.040;2023-11-21T10:56:01;16.37;;;5.30;;
19167;SDS011;9716;53.114;18.040;2023-11-21T10:58:32;9.43;;;4.43;;
19167;SDS011;9716;53.114;18.040;2023-11-21T11:01:03;13.37;;;5.07;;
19167;SDS011;9716;53.114;18.040;2023-11-21T11:03:34;9.83;;;4.77;;
19167;SDS011;9716;53.114;18.040;2023-11-21T11:06:05;10.63;;;4.67;;
19167;SDS011;9716;53.114;18.040;2023-11-21T11:08:39;8.70;;;4.57;;
19167;SDS011;9716;53.114;18.040;2023-11-21T11:11:09;8.20;;;4.00;;
19167;SDS011;9716;53.114;18.040;2023-11-21T11:13:38;15.90;;;6.40;;
19167;SDS011;9716;53.114;18.040;2023-11-21T11:16:11;43.53;;;13.10;;
19167;SDS011;9716;53.114;18.040;2023-11-21T11:18:44;37.07;;;10.27;;
19167;SDS011;9716;53.114;18.040;2023-11-21T11:21:22;36.33;;;9.63;;
19167;SDS011;9716;53.114;18.040;2023-11-21T11:27:01;25.30;;;7.77;;
19167;SDS011;9716;53.114;18.040;2023-11-21T11:29:39;23.83;;;8.03;;
19167;SDS011;9716;53.114;18.040;2023-11-21T11:32:18;17.27;;;7.07;;
19167;SDS011;9716;53.114;18.040;2023-11-21T11:35:01;21.23;;;7.27;;
19167;SDS011;9716;53.114;18.040;2023-11-21T11:37:35;13.60;;;5.90;;
19167;SDS011;9716;53.114;18.040;2023-11-21T11:40:06;17.97;;;5.73;;
19167;SDS011;9716;53.114;18.040;2023-11-21T11:42:36;11.30;;;4.80;;
19167;SDS011;9716;53.114;18.040;2023-11-21T11:45:16;10.70;;;4.63;;
19167;SDS011;9716;53.114;18.040;2023-11-21T11:47:46;13.37;;;6.53;;
19167;SDS011;9716;53.114;18.040;2023-11-21T11:50:17;13.67;;;4.93;;
19167;SDS011;9716;53.114;18.040;2023-11-21T11:52:47;9.00;;;4.60;;
19167;SDS011;9716;53.114;18.040;2023-11-21T11:55:18;8.07;;;3.93;;
19167;SDS011;9716;53.114;18.040;2023-11-21T11:57:50;10.03;;;4.77;;
19167;SDS011;9716;53.114;18.040;2023-11-21T12:00:22;12.27;;;4.40;;
19167;SDS011;9716;53.114;18.040;2023-11-21T12:03:05;7.60;;;3.90;;
19167;SDS011;9716;53.114;18.040;2023-11-21T12:05:36;11.60;;;4.47;;
19167;SDS011;9716;53.114;18.040;2023-11-21T12:08:07;13.47;;;5.07;;
19167;SDS011;9716;53.114;18.040;2023-11-21T12:10:36;8.87;;;3.93;;
19167;SDS011;9716;53.114;18.040;2023-11-21T12:13:08;8.63;;;3.63;;
19167;SDS011;9716;53.114;18.040;2023-11-21T12:15:38;9.67;;;4.17;;
19167;SDS011;9716;53.114;18.040;2023-11-21T12:18:09;14.53;;;5.17;;
19167;SDS011;9716;53.114;18.040;2023-11-21T12:20:37;7.90;;;4.43;;
19167;SDS011;9716;53.114;18.040;2023-11-21T12:23:08;11.03;;;4.77;;
19167;SDS011;9716;53.114;18.040;2023-11-21T12:25:38;10.93;;;4.13;;
19167;SDS011;9716;53.114;18.040;2023-11-21T12:28:09;12.30;;;5.00;;
19167;SDS011;9716;53.114;18.040;2023-11-21T12:30:38;10.57;;;4.33;;
19167;SDS011;9716;53.114;18.040;2023-11-21T12:33:07;10.73;;;3.77;;
19167;SDS011;9716;53.114;18.040;2023-11-21T12:35:37;8.87;;;4.23;;
19167;SDS011;9716;53.114;18.040;2023-11-21T12:38:06;9.10;;;4.50;;
19167;SDS011;9716;53.114;18.040;2023-11-21T12:40:36;9.13;;;4.37;;
19167;SDS011;9716;53.114;18.040;2023-11-21T12:43:05;16.43;;;5.10;;
19167;SDS011;9716;53.114;18.040;2023-11-21T12:45:37;9.47;;;4.47;;
19167;SDS011;9716;53.114;18.040;2023-11-21T12:48:07;9.63;;;4.83;;
19167;SDS011;9716;53.114;18.040;2023-11-21T12:50:38;10.10;;;5.03;;
19167;SDS011;9716;53.114;18.040;2023-11-21T12:53:08;12.03;;;4.30;;
19167;SDS011;9716;53.114;18.040;2023-11-21T12:55:39;8.10;;;4.27;;
19167;SDS011;9716;53.114;18.040;2023-11-21T12:58:09;8.43;;;4.13;;
19167;SDS011;9716;53.114;18.040;2023-11-21T13:00:42;11.17;;;4.70;;
19167;SDS011;9716;53.114;18.040;2023-11-21T13:03:13;8.43;;;3.90;;
19167;SDS011;9716;53.114;18.040;2023-11-21T13:05:45;13.73;;;5.70;;
19167;SDS011;9716;53.114;18.040;2023-11-21T13:08:18;11.30;;;4.87;;
19167;SDS011;9716;53.114;18.040;2023-11-21T13:10:50;10.37;;;4.80;;
19167;SDS011;9716;53.114;18.040;2023-11-21T13:13:21;6.47;;;3.27;;
19167;SDS011;9716;53.114;18.040;2023-11-21T13:15:53;7.87;;;3.80;;
19167;SDS011;9716;53.114;18.040;2023-11-21T13:18:23;9.20;;;4.07;;
19167;SDS011;9716;53.114;18.040;2023-11-21T13:20:54;7.37;;;4.10;;
19167;SDS011;9716;53.114;18.040;2023-11-21T13:23:25;8.30;;;4.20;;
19167;SDS011;9716;53.114;18.040;2023-11-21T13:25:55;9.00;;;4.67;;
19167;SDS011;9716;53.114;18.040;2023-11-21T13:28:33;13.47;;;4.37;;
19167;SDS011;9716;53.114;18.040;2023-11-21T13:31:03;11.87;;;4.30;;
19167;SDS011;9716;53.114;18.040;2023-11-21T13:33:48;9.40;;;3.73;;
19167;SDS011;9716;53.114;18.040;2023-11-21T13:36:22;8.97;;;3.73;;
19167;SDS011;9716;53.114;18.040;2023-11-21T13:38:52;7.53;;;3.80;;
19167;SDS011;9716;53.114;18.040;2023-11-21T13:41:20;10.33;;;4.47;;
19167;SDS011;9716;53.114;18.040;2023-11-21T13:43:55;13.33;;;4.80;;
19167;SDS011;9716;53.114;18.040;2023-11-21T13:46:43;8.90;;;4.50;;
19167;SDS011;9716;53.114;18.040;2023-11-21T13:49:13;12.17;;;4.27;;
19167;SDS011;9716;53.114;18.040;2023-11-21T13:51:43;7.30;;;3.57;;
19167;SDS011;9716;53.114;18.040;2023-11-21T13:54:15;6.60;;;4.10;;
19167;SDS011;9716;53.114;18.040;2023-11-21T13:56:46;8.90;;;4.30;;
19167;SDS011;9716;53.114;18.040;2023-11-21T13:59:17;6.20;;;3.70;;
19167;SDS011;9716;53.114;18.040;2023-11-21T14:01:51;8.50;;;3.63;;
19167;SDS011;9716;53.114;18.040;2023-11-21T14:04:25;7.27;;;3.40;;
19167;SDS011;9716;53.114;18.040;2023-11-21T14:07:16;6.33;;;3.50;;
19167;SDS011;9716;53.114;18.040;2023-11-21T14:09:53;9.83;;;3.37;;
19167;SDS011;9716;53.114;18.040;2023-11-21T14:12:22;10.60;;;4.60;;
19167;SDS011;9716;53.114;18.040;2023-11-21T14:14:55;6.80;;;3.90;;
19167;SDS011;9716;53.114;18.040;2023-11-21T14:17:24;14.13;;;4.83;;
19167;SDS011;9716;53.114;18.040;2023-11-21T14:19:54;11.30;;;4.33;;
19167;SDS011;9716;53.114;18.040;2023-11-21T14:22:23;11.37;;;4.13;;
19167;SDS011;9716;53.114;18.040;2023-11-21T14:24:53;11.17;;;4.50;;
19167;SDS011;9716;53.114;18.040;2023-11-21T14:27:25;10.83;;;3.80;;
19167;SDS011;9716;53.114;18.040;2023-11-21T14:29:54;12.80;;;4.80;;
19167;SDS011;9716;53.114;18.040;2023-11-21T14:32:27;11.83;;;4.43;;
19167;SDS011;9716;53.114;18.040;2023-11-21T14:34:58;6.67;;;3.40;;
19167;SDS011;9716;53.114;18.040;2023-11-21T14:37:26;7.20;;;3.53;;
19167;SDS011;9716;53.114;18.040;2023-11-21T14:39:55;10.33;;;3.87;;
19167;SDS011;9716;53.114;18.040;2023-11-21T14:42:24;6.70;;;3.80;;
19167;SDS011;9716;53.114;18.040;2023-11-21T14:44:56;7.87;;;3.50;;
19167;SDS011;9716;53.114;18.040;2023-11-21T14:47:31;7.60;;;3.67;;
19167;SDS011;9716;53.114;18.040;2023-11-21T14:50:00;11.60;;;3.50;;
19167;SDS011;9716;53.114;18.040;2023-11-21T14:52:48;8.67;;;3.67;;
19167;SDS011;9716;53.114;18.040;2023-11-21T14:55:24;8.70;;;3.57;;
19167;SDS011;9716;53.114;18.040;2023-11-21T14:57:58;6.90;;;3.30;;
19167;SDS011;9716;53.114;18.040;2023-11-21T15:00:31;10.10;;;4.20;;